createdAt,value
2018-09-23T00:01:28.458Z,71.60
2018-09-23T00:04:31.630Z,71.40
2018-09-23T00:07:34.568Z,71.90
2018-09-23T00:10:37.483Z,71.80
2018-09-23T00:13:40.417Z,71.70
2018-09-23T00:16:43.737Z,71.80
2018-09-23T00:19:46.741Z,71.80
2018-09-23T00:22:49.743Z,72.00
2018-09-23T00:25:52.702Z,73.00
2018-09-23T00:28:55.678Z,72.50
2018-09-23T00:31:59.083Z,72.40
2018-09-23T00:35:02.031Z,72.50
2018-09-23T00:38:04.974Z,72.10
2018-09-23T00:41:07.977Z,72.30
2018-09-23T00:44:10.931Z,73.20
2018-09-23T00:47:13.898Z,72.30
2018-09-23T00:50:16.850Z,72.40
2018-09-23T00:53:19.829Z,72.50
2018-09-23T00:56:22.776Z,72.70
2018-09-23T00:59:25.733Z,72.60
2018-09-23T01:02:28.646Z,72.70
2018-09-23T01:05:31.530Z,72.90
2018-09-23T01:08:34.488Z,73.10
2018-09-23T01:11:37.810Z,73.20
2018-09-23T01:14:40.775Z,73.10
2018-09-23T01:17:43.709Z,73.20
2018-09-23T01:20:46.762Z,73.30
2018-09-23T01:23:49.744Z,74.00
2018-09-23T01:26:52.704Z,73.30
2018-09-23T01:29:55.653Z,73.30
2018-09-23T01:32:58.558Z,73.40
2018-09-23T01:36:01.467Z,73.10
2018-09-23T01:39:06.073Z,73.30
2018-09-23T01:42:08.973Z,73.10
2018-09-23T01:45:11.927Z,73.10
2018-09-23T01:48:14.874Z,73.20
2018-09-23T01:51:17.800Z,73.30
2018-09-23T01:54:20.734Z,73.30
2018-09-23T01:57:23.710Z,73.30
2018-09-23T02:00:26.700Z,73.50
2018-09-23T02:03:29.618Z,73.80
2018-09-23T02:06:32.557Z,73.90
2018-09-23T02:09:35.493Z,74.00
2018-09-23T02:12:38.461Z,74.30
2018-09-23T02:15:41.429Z,74.20
2018-09-23T02:18:44.374Z,73.80
2018-09-23T02:21:47.374Z,74.60
2018-09-23T02:24:50.294Z,74.10
2018-09-23T02:27:53.288Z,73.90
2018-09-23T02:30:56.244Z,74.60
2018-09-23T02:33:59.148Z,73.90
2018-09-23T02:37:02.088Z,73.50
2018-09-23T02:40:05.072Z,73.90
2018-09-23T02:43:07.984Z,74.30
2018-09-23T02:46:11.184Z,74.30
2018-09-23T02:49:14.140Z,74.10
2018-09-23T02:52:17.077Z,73.90
2018-09-23T02:55:20.114Z,74.20
2018-09-23T02:58:23.026Z,74.70
2018-09-23T03:01:25.956Z,74.40
2018-09-23T03:04:28.888Z,74.70
2018-09-23T03:07:31.815Z,74.20
2018-09-23T03:10:34.804Z,74.20
2018-09-23T03:13:37.727Z,74.40
2018-09-23T03:16:40.871Z,74.40
2018-09-23T03:19:43.810Z,74.10
2018-09-23T03:22:46.837Z,74.20
2018-09-23T03:25:50.627Z,73.90
2018-09-23T03:28:53.566Z,74.40
2018-09-23T03:31:56.502Z,74.80
2018-09-23T03:34:59.426Z,75.00
2018-09-23T03:38:02.366Z,75.30
2018-09-23T03:41:05.563Z,75.40
2018-09-23T03:44:08.718Z,75.50
2018-09-23T03:47:11.641Z,75.40
2018-09-23T03:50:14.550Z,76.40
2018-09-23T03:53:17.439Z,75.30
2018-09-23T03:56:20.388Z,74.90
2018-09-23T03:59:23.370Z,75.10
2018-09-23T04:02:26.370Z,75.30
2018-09-23T04:05:29.281Z,75.50
2018-09-23T04:08:32.263Z,75.70
2018-09-23T04:11:35.162Z,75.50
2018-09-23T04:14:38.112Z,75.70
2018-09-23T04:17:41.030Z,75.70
2018-09-23T04:20:43.994Z,76.30
2018-09-23T04:23:46.919Z,75.80
2018-09-23T04:26:49.874Z,75.90
2018-09-23T04:29:52.854Z,76.20
2018-09-23T04:32:55.829Z,76.30
2018-09-23T04:35:58.842Z,76.30
2018-09-23T04:39:01.784Z,76.30
2018-09-23T04:42:04.769Z,76.20
2018-09-23T04:45:07.738Z,76.40
2018-09-23T04:48:10.637Z,76.80
2018-09-23T04:51:13.526Z,76.60
2018-09-23T04:54:16.439Z,76.40
2018-09-23T04:57:19.358Z,76.50
2018-09-23T05:00:22.296Z,76.70
2018-09-23T05:03:25.232Z,76.40
2018-09-23T05:06:28.196Z,76.70
2018-09-23T05:09:31.098Z,76.70
2018-09-23T05:12:33.996Z,76.50
2018-09-23T05:15:36.925Z,76.30
2018-09-23T05:18:39.866Z,76.30
2018-09-23T05:21:42.835Z,76.10
2018-09-23T05:24:45.781Z,76.20
2018-09-23T05:27:48.714Z,76.60
2018-09-23T05:30:51.659Z,76.60
2018-09-23T05:33:54.612Z,76.40
2018-09-23T05:36:57.555Z,76.60
2018-09-23T05:40:00.517Z,76.40
2018-09-23T05:43:03.478Z,76.50
2018-09-23T05:46:06.411Z,76.40
2018-09-23T05:49:09.470Z,77.00
2018-09-23T05:52:12.692Z,77.10
2018-09-23T05:55:15.592Z,77.30
2018-09-23T05:58:18.525Z,77.50
2018-09-23T06:01:21.544Z,77.30
2018-09-23T06:04:24.458Z,77.30
2018-09-23T06:07:27.398Z,77.40
2018-09-23T06:10:30.310Z,77.50
2018-09-23T06:13:33.237Z,77.40
2018-09-23T06:16:36.129Z,77.50
2018-09-23T06:19:39.078Z,77.40
2018-09-23T06:22:42.014Z,77.50
2018-09-23T06:25:44.874Z,77.80
2018-09-23T06:28:47.812Z,77.70
2018-09-23T06:31:50.749Z,78.00
2018-09-23T06:34:53.606Z,77.70
2018-09-23T06:37:56.609Z,77.90
2018-09-23T06:40:59.545Z,77.90
2018-09-23T06:44:02.500Z,78.10
2018-09-23T06:47:05.552Z,78.20
2018-09-23T06:50:08.485Z,78.30
2018-09-23T06:53:11.385Z,78.20
2018-09-23T06:56:14.299Z,78.30
2018-09-23T06:59:17.516Z,78.30
2018-09-23T07:02:20.425Z,78.20
2018-09-23T07:05:23.344Z,77.50
2018-09-23T07:08:26.265Z,78.40
2018-09-23T07:11:29.186Z,78.40
2018-09-23T07:14:32.192Z,77.90
2018-09-23T07:17:35.142Z,77.90
2018-09-23T07:20:38.086Z,78.50
2018-09-23T07:23:41.096Z,78.40
2018-09-23T07:26:43.993Z,78.70
2018-09-23T07:29:46.986Z,78.80
2018-09-23T07:32:49.956Z,78.80
2018-09-23T07:35:52.842Z,78.90
2018-09-23T07:38:55.769Z,79.30
2018-09-23T07:41:58.705Z,79.10
2018-09-23T07:45:01.562Z,79.20
2018-09-23T07:48:04.607Z,79.10
2018-09-23T07:51:07.498Z,79.70
2018-09-23T07:54:10.423Z,78.70
2018-09-23T07:57:13.361Z,79.00
2018-09-23T08:00:16.234Z,79.40
2018-09-23T08:03:19.141Z,72.20
2018-09-23T08:06:22.050Z,75.00
2018-09-23T08:09:25.022Z,76.80
2018-09-23T08:12:28.081Z,77.50
2018-09-23T08:15:31.004Z,78.30
2018-09-23T08:18:34.023Z,79.30
2018-09-23T08:21:36.955Z,79.80
2018-09-23T08:24:39.906Z,80.20
2018-09-23T08:27:43.051Z,80.30
2018-09-23T08:30:45.973Z,80.20
2018-09-23T08:33:48.986Z,80.00
2018-09-23T08:36:51.949Z,79.70
2018-09-23T08:39:55.457Z,79.70
2018-09-23T08:42:58.544Z,79.80
2018-09-23T08:46:01.757Z,80.30
2018-09-23T08:49:04.754Z,80.10
2018-09-23T08:52:07.830Z,79.80
2018-09-23T08:55:10.789Z,80.50
2018-09-23T08:58:13.740Z,80.70
2018-09-23T09:01:16.654Z,80.20
2018-09-23T09:04:19.570Z,80.80
2018-09-23T09:07:22.493Z,80.70
2018-09-23T09:10:26.590Z,81.20
2018-09-23T09:13:29.572Z,81.60
2018-09-23T09:16:32.502Z,82.50
2018-09-23T09:19:35.414Z,81.90
2018-09-23T09:22:38.321Z,81.90
2018-09-23T09:25:41.261Z,81.90
2018-09-23T09:28:44.174Z,81.90
2018-09-23T09:31:47.105Z,81.20
2018-09-23T09:34:50.025Z,81.50
2018-09-23T09:37:52.972Z,81.60
2018-09-23T09:40:55.926Z,81.10
2018-09-23T09:43:58.937Z,81.60
2018-09-23T09:47:01.876Z,82.20
2018-09-23T09:50:04.905Z,82.10
2018-09-23T09:53:07.877Z,81.90
2018-09-23T09:56:10.809Z,82.60
2018-09-23T09:59:13.825Z,82.50
2018-09-23T10:02:16.849Z,82.70
2018-09-23T10:05:19.878Z,82.00
2018-09-23T10:08:22.837Z,82.00
2018-09-23T10:11:26.185Z,81.70
2018-09-23T10:14:29.216Z,82.40
2018-09-23T10:17:32.168Z,81.90
2018-09-23T10:20:35.113Z,82.10
2018-09-23T10:23:38.088Z,82.50
2018-09-23T10:26:40.989Z,82.30
2018-09-23T10:29:44.004Z,82.40
2018-09-23T10:32:46.947Z,82.90
2018-09-23T10:35:49.870Z,82.40
2018-09-23T10:38:52.828Z,75.90
2018-09-23T10:41:55.748Z,77.30
2018-09-23T10:44:58.693Z,78.60
2018-09-23T10:48:01.619Z,79.50
2018-09-23T10:51:04.556Z,80.40
2018-09-23T10:54:07.528Z,80.40
2018-09-23T10:57:10.443Z,81.10
2018-09-23T11:00:13.341Z,81.50
2018-09-23T11:03:16.265Z,81.40
2018-09-23T11:06:19.170Z,81.70
2018-09-23T11:09:25.144Z,82.10
2018-09-23T11:12:28.080Z,82.10
2018-09-23T11:15:31.051Z,82.50
2018-09-23T11:18:33.939Z,82.50
2018-09-23T11:21:36.864Z,82.30
2018-09-23T11:24:39.837Z,82.60
2018-09-23T11:27:42.768Z,82.60
2018-09-23T11:30:46.328Z,83.00
2018-09-23T11:33:49.296Z,82.90
2018-09-23T11:36:52.197Z,82.60
2018-09-23T11:39:55.220Z,83.10
2018-09-23T11:42:58.171Z,83.00
2018-09-23T11:46:01.079Z,82.70
2018-09-23T11:49:04.049Z,82.30
2018-09-23T11:52:07.043Z,85.20
2018-09-23T11:55:10.002Z,75.90
2018-09-23T11:58:12.936Z,77.60
2018-09-23T12:01:15.863Z,79.30
2018-09-23T12:04:18.885Z,81.00
2018-09-23T12:07:21.846Z,81.40
2018-09-23T12:10:24.899Z,81.60
2018-09-23T12:13:28.015Z,81.80
2018-09-23T12:16:30.948Z,83.00
2018-09-23T12:19:33.866Z,82.30
2018-09-23T12:22:36.785Z,82.50
2018-09-23T12:25:39.812Z,82.10
2018-09-23T12:28:42.669Z,82.30
2018-09-23T12:31:45.575Z,82.40
2018-09-23T12:34:48.542Z,82.20
2018-09-23T12:37:51.449Z,82.30
2018-09-23T12:40:54.428Z,82.40
2018-09-23T12:43:57.319Z,81.80
2018-09-23T12:47:00.240Z,81.80
2018-09-23T12:50:03.295Z,81.80
2018-09-23T12:53:06.266Z,81.40
2018-09-23T12:56:09.115Z,81.20
2018-09-23T12:59:12.465Z,81.30
2018-09-23T13:02:15.865Z,81.20
2018-09-23T13:05:19.177Z,81.60
2018-09-23T13:08:22.652Z,81.80
2018-09-23T13:11:26.245Z,82.20
2018-09-23T13:14:29.714Z,81.50
2018-09-23T13:17:33.362Z,81.00
2018-09-23T13:20:36.743Z,81.30
2018-09-23T13:23:40.104Z,81.40
2018-09-23T13:26:43.676Z,80.90
2018-09-23T13:29:46.761Z,81.10
2018-09-23T13:32:49.934Z,80.90
2018-09-23T13:35:52.994Z,80.80
2018-09-23T13:38:56.606Z,80.40
2018-09-23T13:42:00.086Z,80.40
2018-09-23T13:45:03.072Z,80.40
2018-09-23T13:48:06.514Z,80.00
2018-09-23T13:51:09.677Z,80.20
2018-09-23T13:54:12.735Z,80.20
2018-09-23T13:57:15.654Z,79.70
2018-09-23T14:00:18.897Z,79.90
2018-09-23T14:03:22.781Z,79.30
2018-09-23T14:06:26.306Z,79.50
2018-09-23T14:09:30.233Z,79.50
2018-09-23T14:12:34.147Z,78.90
2018-09-23T14:15:37.312Z,79.00
2018-09-23T14:18:40.267Z,79.30
2018-09-23T14:21:43.569Z,79.10
2018-09-23T14:24:47.074Z,79.00
2018-09-23T14:27:50.445Z,79.00
2018-09-23T14:30:54.402Z,79.60
2018-09-23T14:33:57.509Z,79.80
2018-09-23T14:37:00.563Z,79.60
2018-09-23T14:40:03.701Z,79.20
2018-09-23T14:43:08.612Z,78.90
2018-09-23T14:46:13.656Z,79.20
2018-09-23T14:49:16.762Z,79.20
2018-09-23T14:52:19.845Z,79.90
2018-09-23T14:55:23.706Z,79.50
2018-09-23T14:58:27.306Z,80.00
2018-09-23T15:01:32.366Z,79.80
2018-09-23T15:04:36.141Z,79.80
2018-09-23T15:07:39.272Z,79.80
2018-09-23T15:10:43.977Z,80.30
2018-09-23T15:13:47.073Z,79.80
2018-09-23T15:16:50.036Z,80.20
2018-09-23T15:19:53.902Z,79.20
2018-09-23T15:22:56.978Z,79.40
2018-09-23T15:26:00.093Z,78.60
2018-09-23T15:29:03.671Z,78.20
2018-09-23T15:32:07.583Z,78.60
2018-09-23T15:35:10.493Z,78.50
2018-09-23T15:38:13.532Z,78.10
2018-09-23T15:41:17.695Z,78.50
2018-09-23T15:44:20.831Z,77.80
2018-09-23T15:47:23.811Z,77.50
2018-09-23T15:50:26.776Z,77.60
2018-09-23T15:53:29.813Z,77.00
2018-09-23T15:56:32.846Z,76.50
2018-09-23T15:59:36.953Z,77.10
2018-09-23T16:02:41.244Z,77.20
2018-09-23T16:05:45.133Z,77.60
2018-09-23T16:08:48.061Z,77.60
2018-09-23T16:11:51.698Z,77.50
2018-09-23T16:14:54.760Z,77.70
2018-09-23T16:17:58.831Z,77.10
2018-09-23T16:21:01.806Z,76.70
2018-09-23T16:24:05.380Z,76.20
2018-09-23T16:27:09.086Z,76.00
2018-09-23T16:30:12.143Z,75.40
2018-09-23T16:33:15.113Z,75.70
2018-09-23T16:36:18.030Z,76.10
2018-09-23T16:39:21.093Z,76.10
2018-09-23T16:42:24.776Z,75.40
2018-09-23T16:45:27.709Z,75.00
2018-09-23T16:48:30.629Z,75.70
2018-09-23T16:51:34.050Z,76.00
2018-09-23T16:54:37.100Z,75.80
2018-09-23T16:57:39.994Z,75.00
2018-09-23T17:00:42.910Z,75.40
2018-09-23T17:03:46.602Z,75.20
2018-09-23T17:06:49.609Z,75.40
2018-09-23T17:09:52.522Z,76.90
2018-09-23T17:12:55.489Z,76.20
2018-09-23T17:15:59.157Z,75.20
2018-09-23T17:19:02.166Z,75.60
2018-09-23T17:22:05.421Z,75.30
2018-09-23T17:25:09.150Z,75.50
2018-09-23T17:28:12.698Z,75.00
2018-09-23T17:31:16.851Z,75.10
2018-09-23T17:34:20.987Z,75.70
2018-09-23T17:37:24.231Z,76.00
2018-09-23T17:40:27.396Z,76.00
2018-09-23T17:43:30.697Z,76.00
2018-09-23T17:46:33.693Z,76.50
2018-09-23T17:49:38.345Z,76.60
2018-09-23T17:52:42.496Z,77.00
2018-09-23T17:55:45.650Z,76.90
2018-09-23T17:58:49.034Z,76.70
2018-09-23T18:01:52.577Z,77.10
2018-09-23T18:04:55.605Z,77.20
2018-09-23T18:07:58.919Z,77.60
2018-09-23T18:11:02.456Z,77.20
2018-09-23T18:14:06.265Z,77.40
2018-09-23T18:17:10.961Z,76.80
2018-09-23T18:20:14.194Z,77.80
2018-09-23T18:23:17.158Z,77.60
2018-09-23T18:26:20.311Z,77.30
2018-09-23T18:29:24.218Z,77.50
2018-09-23T18:32:27.890Z,78.00
2018-09-23T18:35:32.979Z,78.50
2018-09-23T18:38:36.756Z,78.20
2018-09-23T18:41:39.876Z,78.40
2018-09-23T18:44:43.804Z,77.80
2018-09-23T18:47:47.160Z,77.70
2018-09-23T18:50:50.616Z,78.10
2018-09-23T18:53:59.636Z,77.90
2018-09-23T18:57:02.866Z,78.00
2018-09-23T19:00:10.000Z,78.10
2018-09-23T19:03:13.226Z,78.00
2018-09-23T19:06:16.225Z,78.30
2018-09-23T19:09:20.795Z,78.20
2018-09-23T19:12:23.789Z,77.90
2018-09-23T19:15:27.083Z,77.50
2018-09-23T19:18:31.117Z,77.20
2018-09-23T19:21:34.302Z,77.00
2018-09-23T19:24:38.983Z,77.70
2018-09-23T19:27:45.696Z,77.50
2018-09-23T19:30:49.710Z,78.30
2018-09-23T19:33:53.963Z,78.10
2018-09-23T19:36:57.210Z,78.10
2018-09-23T19:40:00.668Z,78.20
2018-09-23T19:43:04.122Z,77.90
2018-09-23T19:46:07.306Z,77.80
2018-09-23T19:49:10.711Z,77.90
2018-09-23T19:52:14.779Z,77.90
2018-09-23T19:55:18.257Z,77.90
2018-09-23T19:58:21.537Z,78.10
2018-09-23T20:01:25.387Z,78.10
2018-09-23T20:04:28.765Z,78.90
2018-09-23T20:07:32.975Z,78.50
2018-09-23T20:10:36.069Z,77.70
2018-09-23T20:13:39.882Z,78.70
2018-09-23T20:16:43.724Z,78.60
2018-09-23T20:19:47.334Z,78.70
2018-09-23T20:22:51.209Z,78.40
2018-09-23T20:25:54.198Z,78.20
2018-09-23T20:29:02.814Z,78.10
2018-09-23T20:32:09.325Z,78.20
2018-09-23T20:35:13.202Z,78.40
2018-09-23T20:38:16.320Z,79.00
2018-09-23T20:41:19.512Z,78.60
2018-09-23T20:44:23.185Z,78.60
2018-09-23T20:47:26.155Z,78.10
2018-09-23T20:50:29.352Z,78.50
2018-09-23T20:53:32.361Z,77.90
2018-09-23T20:56:35.386Z,78.50
2018-09-23T20:59:38.602Z,78.60
2018-09-23T21:02:41.625Z,78.90
2018-09-23T21:05:44.675Z,79.10
2018-09-23T21:08:47.672Z,79.40
2018-09-23T21:11:50.637Z,78.50
2018-09-23T21:15:00.234Z,78.30
2018-09-23T21:18:03.253Z,78.60
2018-09-23T21:21:06.304Z,78.50
2018-09-23T21:24:09.336Z,78.80
2018-09-23T21:27:12.304Z,78.60
2018-09-23T21:30:15.321Z,78.40
2018-09-23T21:33:18.370Z,79.40
2018-09-23T21:36:21.303Z,79.20
2018-09-23T21:39:24.254Z,78.70
2018-09-23T21:42:27.225Z,79.10
2018-09-23T21:45:30.216Z,78.80
2018-09-23T21:48:33.221Z,78.80
2018-09-23T21:51:36.206Z,78.70
2018-09-23T21:54:39.185Z,78.00
2018-09-23T21:57:42.208Z,78.30
2018-09-23T22:00:45.317Z,78.00
2018-09-23T22:03:48.298Z,78.50
2018-09-23T22:06:51.267Z,78.40
2018-09-23T22:09:54.440Z,78.50
2018-09-23T22:12:59.296Z,79.10
2018-09-23T22:16:02.290Z,78.30
2018-09-23T22:19:05.272Z,77.90
2018-09-23T22:22:08.780Z,77.90
2018-09-23T22:25:13.026Z,77.70
2018-09-23T22:28:16.055Z,78.00
2018-09-23T22:31:19.022Z,78.20
2018-09-23T22:34:22.094Z,78.30
2018-09-23T22:37:25.065Z,78.20
2018-09-23T22:40:27.998Z,77.70
2018-09-23T22:43:30.999Z,78.10
2018-09-23T22:46:33.929Z,78.00
2018-09-23T22:49:36.875Z,78.80
2018-09-23T22:52:39.867Z,77.80
2018-09-23T22:55:42.821Z,77.80
2018-09-23T22:58:45.781Z,77.70
2018-09-23T23:01:48.769Z,77.60
2018-09-23T23:04:51.772Z,77.50
2018-09-23T23:07:54.704Z,77.30
2018-09-23T23:10:57.705Z,76.90
2018-09-23T23:14:00.632Z,77.20
2018-09-23T23:17:03.582Z,77.40
2018-09-23T23:20:06.836Z,77.90
2018-09-23T23:23:09.783Z,77.60
2018-09-23T23:26:12.731Z,77.30
2018-09-23T23:29:15.791Z,77.00
2018-09-23T23:32:18.785Z,78.20
2018-09-23T23:35:21.686Z,77.70
2018-09-23T23:38:24.641Z,77.80
2018-09-23T23:41:27.585Z,78.10
2018-09-23T23:44:30.580Z,77.40
2018-09-23T23:47:33.569Z,78.20
2018-09-23T23:50:36.540Z,78.60
2018-09-23T23:53:39.466Z,78.50
2018-09-23T23:56:42.426Z,78.60
2018-09-23T23:59:45.364Z,78.50
